Lambert St Louis International Airport
KSTL : now visible

Airfield :











YOU CAN JOIN US ON...

 
LOGIN :

Register | Disclaimer

   EN    FR    IT 

 









Legend :    VFR   Marginal VFR   IFR   Intensive IFR   Very Intensive IFR
Visi :
Ceiling :
>= 8 km
>= 3000ft
5 to 8 km
1000 to 3000 ft
1500m to 5 km
500 to 1000 ft
800 to 1500m
200 to 500 ft
< 800m
< 200 ft
Symbols :   Thunderstorms  Fog  Heavy snow  Heavy precipitations  Wind > 20 kt






- Airport Elevation : 618 ft
- IATA code : STL


KSTL - Lambert St Louis International

CURRENT METAR :
  • 081751Z 11006KT 10SM FEW060 FEW250 29/10 A2972 RMK AO2 SLP054 T02890100 10289 20178 58017 $

EXPIRED METARs :
  • 081651Z 00000KT 10SM FEW250 27/15 A2976 RMK AO2 SLP067 T02670150
  • 081551Z 00000KT 10SM FEW250 25/16 A2978 RMK AO2 SLP073 T02500156 $

TAF KSTL
Valid from the 08 at 18:00 until the 10 at 00:00 UTC


081727Z 0818/0924 VRB04KT P6SM SKC
FM082300 29012G20KT 4SM TSRA BKN040CB
FM090100 33012G22KT P6SM VCTS BKN040CB
FM090200 34014G24KT P6SM BKN150
FM090700 31010KT P6SM SKC
FM091800 29016G26KT P6SM SCT080



MET'MAP, your aeronautical weather chart ! - Copyright ORBIFLY December 2007 - Disclaimer

ORBIFLY MET'MAP TEAM :

Programming & Development : Alexandra Zaïnal
Concept & original design : Baudouin d'Aumeries
Assistance for programming : Marc-Olivier Méhu
Technical & hardware support : Manuel Goepfert

Contact : metmap@orbifly.com




SOURCES & CREDITS :

   NOAA       Earth
Advisory